createdAt,value
2023-03-06T00:00:20.587Z,4.10
2023-03-06T00:02:47.482Z,3.40
2023-03-06T00:05:14.756Z,3.05
2023-03-06T00:07:41.775Z,3.45
2023-03-06T00:10:09.206Z,4.45
2023-03-06T00:12:35.547Z,3.00
2023-03-06T00:15:04.025Z,4.95
2023-03-06T00:17:31.599Z,3.33
2023-03-06T00:19:57.980Z,2.60
2023-03-06T00:22:24.383Z,2.15
2023-03-06T00:24:53.483Z,5.33
2023-03-06T00:27:20.648Z,2.92
2023-03-06T00:29:49.159Z,3.17
2023-03-06T00:32:15.959Z,2.67
2023-03-06T00:34:42.338Z,2.08
2023-03-06T00:37:08.686Z,3.53
2023-03-06T00:39:35.042Z,4.88
2023-03-06T00:42:01.400Z,3.13
2023-03-06T00:44:27.778Z,3.47
2023-03-06T00:46:54.158Z,4.45
2023-03-06T00:49:20.566Z,3.20
2023-03-06T00:51:46.928Z,4.38
2023-03-06T00:54:13.323Z,3.53
2023-03-06T00:56:39.672Z,3.40
2023-03-06T00:59:06.021Z,5.72
2023-03-06T01:01:32.594Z,3.40
2023-03-06T01:03:58.990Z,3.35
2023-03-06T01:06:25.408Z,4.40
2023-03-06T01:08:51.758Z,7.07
2023-03-06T01:11:18.125Z,2.67
2023-03-06T01:13:44.669Z,3.50
2023-03-06T01:16:14.167Z,3.35
2023-03-06T01:18:41.369Z,4.20
2023-03-06T01:21:07.937Z,5.38
2023-03-06T01:23:34.593Z,2.47
2023-03-06T01:26:01.273Z,4.40
2023-03-06T01:28:27.727Z,5.22
2023-03-06T01:30:54.111Z,3.22
2023-03-06T01:33:20.882Z,4.65
2023-03-06T01:35:47.308Z,4.35
2023-03-06T01:38:14.225Z,3.37
2023-03-06T01:40:40.903Z,3.88
2023-03-06T01:43:29.285Z,4.68
2023-03-06T01:46:17.501Z,4.05
2023-03-06T01:48:44.935Z,5.30
2023-03-06T01:51:12.144Z,6.40
2023-03-06T01:53:41.059Z,5.28
2023-03-06T01:56:07.787Z,4.47
2023-03-06T01:58:34.539Z,4.20
2023-03-06T02:01:00.952Z,6.07
2023-03-06T02:03:28.953Z,6.77
2023-03-06T02:05:56.398Z,6.03
2023-03-06T02:08:23.972Z,5.15
2023-03-06T02:11:17.381Z,6.53
2023-03-06T02:13:44.933Z,5.50
2023-03-06T02:16:12.206Z,4.90
2023-03-06T02:18:40.787Z,6.10
2023-03-06T02:21:09.997Z,5.97
2023-03-06T02:23:59.548Z,7.55
2023-03-06T02:26:28.121Z,6.00
2023-03-06T02:28:54.502Z,8.27
2023-03-06T02:31:27.051Z,6.68
2023-03-06T02:34:05.637Z,6.30
2023-03-06T02:36:35.349Z,7.38
2023-03-06T02:39:02.055Z,6.70
2023-03-06T02:41:28.418Z,7.90
2023-03-06T02:43:54.890Z,8.80
2023-03-06T02:46:21.394Z,7.13
2023-03-06T02:48:47.870Z,7.80
2023-03-06T02:51:14.241Z,10.30
2023-03-06T02:53:40.626Z,7.03
2023-03-06T02:56:07.836Z,8.60
2023-03-06T02:58:34.265Z,9.98
2023-03-06T03:01:00.612Z,8.80
2023-03-06T03:03:26.959Z,7.55
2023-03-06T03:05:53.342Z,8.80
2023-03-06T03:08:19.709Z,6.70
2023-03-06T03:10:46.065Z,8.93
2023-03-06T03:13:12.468Z,8.98
2023-03-06T03:15:38.909Z,8.90
2023-03-06T03:18:05.304Z,10.17
2023-03-06T03:20:31.653Z,9.20
2023-03-06T03:22:58.026Z,11.35
2023-03-06T03:25:26.046Z,10.43
2023-03-06T03:27:52.453Z,9.40
2023-03-06T03:30:19.014Z,12.13
2023-03-06T03:32:45.436Z,9.65
2023-03-06T03:35:11.829Z,8.07
2023-03-06T03:37:38.352Z,10.63
2023-03-06T03:40:06.621Z,10.02
2023-03-06T03:42:33.204Z,12.10
2023-03-06T03:44:59.580Z,11.10
2023-03-06T03:47:25.980Z,9.35
2023-03-06T03:49:52.345Z,9.38
2023-03-06T03:52:18.725Z,8.38
2023-03-06T03:54:45.082Z,8.73
2023-03-06T03:57:11.535Z,8.52
2023-03-06T03:59:37.863Z,9.18
2023-03-06T04:02:07.201Z,9.43
2023-03-06T04:04:33.650Z,8.30
2023-03-06T04:07:00.681Z,8.47
2023-03-06T04:09:27.195Z,6.82
2023-03-06T04:11:53.552Z,7.93
2023-03-06T04:14:19.920Z,7.20
2023-03-06T04:16:46.273Z,7.53
2023-03-06T04:19:12.681Z,8.60
2023-03-06T04:21:39.046Z,9.88
2023-03-06T04:24:06.030Z,9.05
2023-03-06T04:26:32.400Z,7.53
2023-03-06T04:28:58.984Z,7.88
2023-03-06T04:31:25.495Z,7.87
2023-03-06T04:33:51.880Z,7.13
2023-03-06T04:36:30.362Z,6.75
2023-03-06T04:38:57.441Z,9.90
2023-03-06T04:41:23.864Z,6.68
2023-03-06T04:43:50.763Z,5.50
2023-03-06T04:46:17.418Z,7.35
2023-03-06T04:48:44.091Z,6.85
2023-03-06T04:51:12.562Z,9.23
2023-03-06T04:53:39.211Z,6.68
2023-03-06T04:56:06.274Z,8.60
2023-03-06T04:58:32.601Z,6.25
2023-03-06T05:00:58.982Z,5.85
2023-03-06T05:03:25.379Z,5.72
2023-03-06T05:05:51.720Z,5.70
2023-03-06T05:08:18.396Z,5.83
2023-03-06T05:10:45.666Z,5.38
2023-03-06T05:13:12.206Z,5.40
2023-03-06T05:15:41.342Z,4.93
2023-03-06T05:18:07.720Z,4.70
2023-03-06T05:20:34.109Z,5.00
2023-03-06T05:23:00.482Z,4.05
2023-03-06T05:25:26.855Z,3.53
2023-03-06T05:27:53.204Z,5.80
2023-03-06T05:30:21.154Z,5.28
2023-03-06T05:32:47.605Z,4.73
2023-03-06T05:35:22.893Z,3.65
2023-03-06T05:37:49.355Z,3.63
2023-03-06T05:40:16.411Z,3.38
2023-03-06T05:42:43.033Z,4.15
2023-03-06T05:45:10.276Z,6.67
2023-03-06T05:47:36.865Z,3.30
2023-03-06T05:50:04.855Z,4.57
2023-03-06T05:52:31.271Z,3.95
2023-03-06T05:54:57.666Z,2.53
2023-03-06T05:57:24.675Z,2.67
2023-03-06T05:59:51.304Z,3.45
2023-03-06T06:02:19.231Z,3.75
2023-03-06T06:04:45.617Z,4.15
2023-03-06T06:07:16.982Z,3.88
2023-03-06T06:09:45.560Z,2.90
2023-03-06T06:12:15.422Z,3.47
2023-03-06T06:14:41.819Z,1.85
2023-03-06T06:17:08.183Z,7.03
2023-03-06T06:19:34.518Z,3.42
2023-03-06T06:22:02.656Z,4.77
2023-03-06T06:24:29.997Z,3.38
2023-03-06T06:26:57.720Z,3.15
2023-03-06T06:29:24.957Z,1.92
2023-03-06T06:31:52.166Z,3.65
2023-03-06T06:34:19.356Z,2.20
2023-03-06T06:36:45.802Z,2.95
2023-03-06T06:39:15.447Z,2.13
2023-03-06T06:41:59.368Z,2.95
2023-03-06T06:44:28.318Z,3.45
2023-03-06T06:47:22.409Z,1.20
2023-03-06T06:49:40.962Z,1.83
2023-03-06T06:52:07.549Z,1.45
2023-03-06T06:54:34.739Z,5.95
2023-03-06T06:57:01.193Z,1.33
2023-03-06T06:59:27.626Z,1.20
2023-03-06T07:01:54.013Z,2.05
2023-03-06T07:04:20.656Z,1.92
2023-03-06T07:06:47.041Z,1.58
2023-03-06T07:09:14.263Z,1.45
2023-03-06T07:11:41.439Z,1.07
2023-03-06T07:14:08.233Z,1.20
2023-03-06T07:16:34.869Z,2.13
2023-03-06T07:19:01.257Z,1.75
2023-03-06T07:21:27.649Z,1.13
2023-03-06T07:23:55.180Z,5.33
2023-03-06T07:26:21.858Z,1.48
2023-03-06T07:28:53.142Z,1.05
2023-03-06T07:31:22.397Z,1.77
2023-03-06T07:33:53.333Z,2.15
2023-03-06T07:36:20.539Z,0.97
2023-03-06T07:38:47.169Z,1.70
2023-03-06T07:41:15.167Z,1.20
2023-03-06T07:43:42.141Z,1.20
2023-03-06T07:46:09.273Z,1.15
2023-03-06T07:48:36.912Z,0.70
2023-03-06T07:51:06.169Z,0.90
2023-03-06T07:53:34.203Z,1.77
2023-03-06T07:56:00.731Z,0.73
2023-03-06T07:58:27.289Z,2.65
2023-03-06T08:00:53.644Z,0.90
2023-03-06T08:03:20.023Z,1.25
2023-03-06T08:05:46.415Z,1.90
2023-03-06T08:08:12.809Z,1.20
2023-03-06T08:10:39.282Z,1.27
2023-03-06T08:13:05.702Z,0.80
2023-03-06T08:15:32.091Z,0.93
2023-03-06T08:17:58.531Z,1.17
2023-03-06T08:20:24.989Z,1.00
2023-03-06T08:22:51.352Z,2.83
2023-03-06T08:25:17.743Z,3.20
2023-03-06T08:27:46.724Z,3.65
2023-03-06T08:30:13.762Z,1.30
2023-03-06T08:32:40.225Z,1.55
2023-03-06T08:35:06.831Z,0.98
2023-03-06T08:37:33.304Z,0.70
2023-03-06T08:39:59.694Z,0.50
2023-03-06T08:42:26.182Z,0.80
2023-03-06T08:44:52.507Z,0.98
2023-03-06T08:47:19.018Z,1.30
2023-03-06T08:49:45.486Z,1.43
2023-03-06T08:52:11.971Z,0.63
2023-03-06T08:54:39.234Z,1.13
2023-03-06T08:57:06.404Z,1.10
2023-03-06T08:59:32.816Z,0.75
2023-03-06T09:01:59.253Z,2.20
2023-03-06T09:04:25.699Z,0.88
2023-03-06T09:06:53.932Z,0.43
2023-03-06T09:09:21.579Z,0.85
2023-03-06T09:11:48.144Z,0.60
2023-03-06T09:14:14.542Z,1.20
2023-03-06T09:16:40.909Z,0.70
2023-03-06T09:19:07.293Z,2.25
2023-03-06T09:21:33.801Z,0.77
2023-03-06T09:24:00.264Z,0.40
2023-03-06T09:26:39.460Z,0.50
2023-03-06T09:29:12.575Z,1.73
2023-03-06T09:31:38.968Z,2.55
2023-03-06T09:34:05.757Z,1.30
2023-03-06T09:36:40.152Z,1.70
2023-03-06T09:39:12.274Z,0.73
2023-03-06T09:41:41.446Z,0.60
2023-03-06T09:44:18.540Z,1.00
2023-03-06T09:47:03.122Z,1.02
2023-03-06T09:49:54.114Z,0.70
2023-03-06T09:52:58.207Z,0.87
2023-03-06T09:55:27.143Z,1.55
2023-03-06T09:58:09.374Z,0.50
2023-03-06T10:00:41.489Z,2.42
2023-03-06T10:03:19.301Z,0.77
2023-03-06T10:06:12.949Z,3.37
2023-03-06T10:09:03.430Z,1.83
2023-03-06T10:11:40.700Z,1.23
2023-03-06T10:14:35.783Z,1.10
2023-03-06T10:17:02.701Z,0.90
2023-03-06T10:19:42.218Z,1.30
2023-03-06T10:22:27.450Z,1.80
2023-03-06T10:25:03.264Z,1.42
2023-03-06T10:27:57.181Z,2.05
2023-03-06T10:30:35.765Z,2.15
2023-03-06T10:33:22.651Z,1.47
2023-03-06T10:35:53.331Z,2.15
2023-03-06T10:38:25.895Z,3.22
2023-03-06T10:41:10.589Z,1.90
2023-03-06T10:43:42.824Z,1.00
2023-03-06T10:46:11.751Z,1.73
2023-03-06T10:48:41.982Z,1.20
2023-03-06T10:51:23.887Z,2.85
2023-03-06T10:53:57.788Z,0.63
2023-03-06T10:56:35.791Z,3.03
2023-03-06T10:59:12.736Z,2.20
2023-03-06T11:01:45.210Z,1.10
2023-03-06T11:04:23.754Z,0.60
2023-03-06T11:07:16.656Z,2.05
2023-03-06T11:09:47.723Z,1.50
2023-03-06T11:12:32.311Z,2.50
2023-03-06T11:15:14.132Z,0.70
2023-03-06T11:17:58.821Z,1.42
2023-03-06T11:20:44.681Z,0.93
2023-03-06T11:23:20.136Z,0.70
2023-03-06T11:25:56.460Z,0.50
2023-03-06T11:28:33.089Z,0.77
2023-03-06T11:31:22.900Z,1.20
2023-03-06T11:34:14.080Z,0.82
2023-03-06T11:37:16.295Z,1.40
2023-03-06T11:39:59.479Z,1.03
2023-03-06T11:42:40.628Z,2.20
2023-03-06T11:45:22.633Z,1.50
2023-03-06T11:47:57.751Z,3.10
2023-03-06T11:50:39.366Z,1.20
2023-03-06T11:53:10.437Z,2.30
2023-03-06T11:55:39.790Z,1.35
2023-03-06T11:58:39.371Z,1.85
2023-03-06T12:01:22.499Z,0.88
2023-03-06T12:03:57.531Z,2.17
2023-03-06T12:06:51.686Z,2.47
2023-03-06T12:09:28.597Z,2.05
2023-03-06T12:12:23.008Z,1.85
2023-03-06T12:15:06.756Z,0.82
2023-03-06T12:17:55.205Z,1.85
2023-03-06T12:20:43.988Z,3.73
2023-03-06T12:23:16.373Z,1.27
2023-03-06T12:25:49.844Z,3.00
2023-03-06T12:28:42.217Z,2.80
2023-03-06T12:31:11.575Z,5.75
2023-03-06T12:33:59.421Z,3.70
2023-03-06T12:36:51.796Z,2.20
2023-03-06T12:39:35.799Z,1.90
2023-03-06T12:42:24.042Z,2.25
2023-03-06T12:45:03.991Z,1.88
2023-03-06T12:47:43.930Z,1.40
2023-03-06T12:50:29.898Z,4.15
2023-03-06T12:53:00.425Z,2.47
2023-03-06T12:55:27.853Z,1.25
2023-03-06T12:57:54.253Z,1.23
2023-03-06T13:00:32.942Z,4.83
2023-03-06T13:03:29.784Z,2.35
2023-03-06T13:06:12.948Z,3.10
2023-03-06T13:08:52.727Z,2.38
2023-03-06T13:11:49.714Z,2.10
2023-03-06T13:14:22.996Z,3.93
2023-03-06T13:16:49.430Z,2.33
2023-03-06T13:19:19.676Z,1.92
2023-03-06T13:21:55.114Z,1.75
2023-03-06T13:24:23.993Z,3.20
2023-03-06T13:26:54.899Z,2.50
2023-03-06T13:29:36.521Z,2.72
2023-03-06T13:32:02.972Z,2.97
2023-03-06T13:34:39.737Z,2.60
2023-03-06T13:37:23.119Z,2.63
2023-03-06T13:39:55.685Z,2.93
2023-03-06T13:42:31.680Z,4.18
2023-03-06T13:45:07.772Z,4.30
2023-03-06T13:50:44.023Z,5.90
2023-03-06T13:53:37.758Z,7.13
2023-03-06T13:56:31.916Z,5.72
2023-03-06T13:59:17.100Z,7.32
2023-03-06T14:02:05.735Z,5.20
2023-03-06T14:04:34.336Z,6.78
2023-03-06T14:07:06.792Z,7.83
2023-03-06T14:09:37.906Z,5.68
2023-03-06T14:12:18.731Z,8.60
2023-03-06T14:14:50.732Z,6.68
2023-03-06T14:17:27.497Z,9.35
2023-03-06T14:19:54.876Z,8.00
2023-03-06T14:22:24.279Z,8.30
2023-03-06T14:25:07.400Z,7.18
2023-03-06T14:27:43.987Z,5.15
2023-03-06T14:30:17.885Z,5.32
2023-03-06T14:32:44.988Z,8.40
2023-03-06T14:35:23.297Z,7.30
2023-03-06T14:37:55.528Z,6.45
2023-03-06T14:40:29.001Z,6.70
2023-03-06T14:43:22.585Z,5.57
2023-03-06T14:45:55.017Z,7.60
2023-03-06T14:48:22.523Z,6.10
2023-03-06T14:50:54.367Z,6.20
2023-03-06T14:53:27.961Z,6.55
2023-03-06T14:56:01.058Z,4.85
2023-03-06T14:58:51.027Z,4.67
2023-03-06T15:01:24.170Z,7.03
2023-03-06T15:03:53.163Z,6.25
2023-03-06T15:06:22.633Z,4.47
2023-03-06T15:09:00.385Z,3.95
2023-03-06T15:11:26.931Z,4.20
2023-03-06T15:14:04.922Z,3.28
2023-03-06T15:16:31.567Z,5.20
2023-03-06T15:19:00.287Z,5.13
2023-03-06T15:21:28.624Z,4.55
2023-03-06T15:23:57.108Z,3.97
2023-03-06T15:26:29.359Z,4.15
2023-03-06T15:29:09.061Z,4.22
2023-03-06T15:31:44.071Z,5.90
2023-03-06T15:34:10.385Z,6.68
2023-03-06T15:36:44.436Z,4.50
2023-03-06T15:39:32.061Z,5.07
2023-03-06T15:42:16.013Z,7.78
2023-03-06T15:44:42.580Z,3.65
2023-03-06T15:47:11.664Z,7.45
2023-03-06T15:49:39.799Z,5.73
2023-03-06T15:52:07.440Z,5.00
2023-03-06T15:54:34.292Z,4.97
2023-03-06T15:57:02.554Z,4.82
2023-03-06T15:59:33.183Z,6.10
2023-03-06T16:02:11.712Z,6.50
2023-03-06T16:04:38.147Z,6.57
2023-03-06T16:07:04.500Z,7.85
2023-03-06T16:09:30.910Z,6.53
2023-03-06T16:11:57.402Z,7.43
2023-03-06T16:14:23.978Z,7.80
2023-03-06T16:16:52.509Z,9.98
2023-03-06T16:19:28.994Z,11.25
2023-03-06T16:21:56.367Z,12.23
2023-03-06T16:24:23.046Z,11.82
2023-03-06T16:26:51.371Z,15.40
2023-03-06T16:29:23.558Z,12.23
2023-03-06T16:31:50.239Z,10.00
2023-03-06T16:34:17.037Z,12.73
2023-03-06T16:36:43.486Z,14.15
2023-03-06T16:39:21.998Z,13.07
2023-03-06T16:41:51.845Z,13.88
2023-03-06T16:44:19.275Z,12.95
2023-03-06T16:46:47.914Z,14.35
2023-03-06T16:49:20.153Z,14.80
2023-03-06T16:51:46.882Z,14.23
2023-03-06T16:54:13.761Z,14.65
2023-03-06T16:56:40.245Z,14.07
2023-03-06T16:59:06.900Z,15.65
2023-03-06T17:01:33.424Z,15.00
2023-03-06T17:03:59.836Z,13.07
2023-03-06T17:06:26.323Z,14.18
2023-03-06T17:08:52.773Z,14.93
2023-03-06T17:11:22.035Z,15.75
2023-03-06T17:13:48.708Z,15.95
2023-03-06T17:16:16.385Z,16.30
2023-03-06T17:18:44.620Z,14.48
2023-03-06T17:21:12.660Z,16.50
2023-03-06T17:23:39.136Z,14.35
2023-03-06T17:26:18.790Z,14.27
2023-03-06T17:28:45.770Z,14.27
2023-03-06T17:31:22.341Z,16.88
2023-03-06T17:33:49.340Z,14.15
2023-03-06T17:36:16.330Z,14.43
2023-03-06T17:38:43.345Z,15.38
2023-03-06T17:41:11.020Z,17.27
2023-03-06T17:43:38.633Z,14.10
2023-03-06T17:46:07.376Z,14.80
2023-03-06T17:48:33.994Z,18.52
2023-03-06T17:51:00.646Z,15.07
2023-03-06T17:53:27.751Z,15.60
2023-03-06T17:55:55.164Z,16.63
2023-03-06T17:58:21.497Z,15.18
2023-03-06T18:00:48.243Z,13.65
2023-03-06T18:03:14.596Z,17.15
2023-03-06T18:05:41.042Z,14.37
2023-03-06T18:08:08.296Z,15.30
2023-03-06T18:10:34.780Z,18.13
2023-03-06T18:13:01.183Z,15.48
2023-03-06T18:15:27.533Z,16.00
2023-03-06T18:17:54.676Z,15.20
2023-03-06T18:20:21.010Z,14.90
2023-03-06T18:22:47.400Z,16.98
2023-03-06T18:25:13.780Z,17.50
2023-03-06T18:27:40.132Z,20.67
2023-03-06T18:30:07.006Z,16.77
2023-03-06T18:32:33.401Z,19.63
2023-03-06T18:34:59.799Z,17.65
2023-03-06T18:37:26.206Z,17.02
2023-03-06T18:39:52.802Z,18.20
2023-03-06T18:42:19.248Z,18.43
2023-03-06T18:44:47.773Z,18.02
2023-03-06T18:47:15.395Z,18.77
2023-03-06T18:49:44.119Z,15.95
2023-03-06T18:52:19.113Z,18.98
2023-03-06T18:54:45.502Z,17.57
2023-03-06T18:57:11.882Z,18.77
2023-03-06T18:59:38.210Z,17.52
2023-03-06T19:02:04.662Z,19.10
2023-03-06T19:04:31.058Z,17.48
2023-03-06T19:06:57.440Z,15.63
2023-03-06T19:09:23.818Z,16.15
2023-03-06T19:11:50.202Z,15.57
2023-03-06T19:14:16.947Z,16.23
2023-03-06T19:16:43.400Z,18.02
2023-03-06T19:19:09.808Z,16.87
2023-03-06T19:21:36.263Z,18.38
2023-03-06T19:24:03.281Z,18.45
2023-03-06T19:26:29.642Z,17.20
2023-03-06T19:28:56.073Z,21.05
2023-03-06T19:31:27.565Z,18.20
2023-03-06T19:33:55.833Z,23.73
2023-03-06T19:36:26.622Z,20.63
2023-03-06T19:38:55.126Z,19.70
2023-03-06T19:41:21.665Z,20.17
2023-03-06T19:43:54.502Z,21.37
2023-03-06T19:46:22.277Z,19.23
2023-03-06T19:48:48.783Z,18.58
2023-03-06T19:51:15.216Z,19.30
2023-03-06T19:53:41.628Z,22.15
2023-03-06T19:56:09.675Z,20.47
2023-03-06T19:58:36.461Z,23.83
2023-03-06T20:01:09.584Z,19.65
2023-03-06T20:03:36.060Z,19.38
2023-03-06T20:06:06.232Z,22.23
2023-03-06T20:08:32.778Z,17.97
2023-03-06T20:10:59.121Z,20.95
2023-03-06T20:13:25.510Z,18.73
2023-03-06T20:15:51.920Z,22.75
2023-03-06T20:18:18.276Z,18.88
2023-03-06T20:20:44.647Z,23.77
2023-03-06T20:23:11.832Z,20.25
2023-03-06T20:25:38.202Z,21.80
2023-03-06T20:28:05.001Z,24.33
2023-03-06T20:30:37.791Z,19.35
2023-03-06T20:33:04.616Z,19.53
2023-03-06T20:35:31.097Z,20.65
2023-03-06T20:37:57.692Z,24.02
2023-03-06T20:40:24.102Z,20.33
2023-03-06T20:42:50.479Z,22.80
2023-03-06T20:45:16.954Z,21.50
2023-03-06T20:47:47.061Z,21.63
2023-03-06T20:50:15.172Z,21.42
2023-03-06T20:52:41.558Z,21.50
2023-03-06T20:55:08.361Z,20.45
2023-03-06T20:57:34.791Z,21.00
2023-03-06T21:00:01.182Z,18.35
2023-03-06T21:02:27.539Z,22.35
2023-03-06T21:04:53.950Z,20.58
2023-03-06T21:07:20.358Z,21.15
2023-03-06T21:09:47.638Z,19.90
2023-03-06T21:12:14.053Z,18.48
2023-03-06T21:14:40.386Z,20.17
2023-03-06T21:17:06.739Z,19.70
2023-03-06T21:19:33.117Z,20.65
2023-03-06T21:21:59.480Z,18.60
2023-03-06T21:24:25.867Z,19.80
2023-03-06T21:26:52.284Z,19.65
2023-03-06T21:29:18.692Z,17.73
2023-03-06T21:31:45.107Z,18.02
2023-03-06T21:34:11.666Z,20.03
2023-03-06T21:36:38.154Z,16.35
2023-03-06T21:39:06.295Z,17.25
2023-03-06T21:41:32.917Z,18.45
2023-03-06T21:44:01.731Z,17.90
2023-03-06T21:46:28.462Z,17.33
2023-03-06T21:48:55.432Z,16.63
2023-03-06T21:51:26.212Z,15.35
2023-03-06T21:53:53.642Z,14.95
2023-03-06T21:56:22.209Z,15.27
2023-03-06T21:58:48.700Z,14.53
2023-03-06T22:01:23.703Z,14.63
2023-03-06T22:03:50.536Z,14.55
2023-03-06T22:06:19.711Z,13.77
2023-03-06T22:08:46.806Z,12.70
2023-03-06T22:11:19.247Z,12.73
2023-03-06T22:13:46.040Z,12.55
2023-03-06T22:16:13.149Z,8.95
2023-03-06T22:18:39.678Z,12.05
2023-03-06T22:21:08.237Z,10.50
2023-03-06T22:23:34.670Z,9.03
2023-03-06T22:26:04.959Z,9.27
2023-03-06T22:28:32.599Z,9.23
2023-03-06T22:31:13.361Z,7.95
2023-03-06T22:33:40.425Z,6.93
2023-03-06T22:36:09.407Z,6.40
2023-03-06T22:38:41.106Z,7.28
2023-03-06T22:41:08.717Z,6.68
2023-03-06T22:43:36.075Z,6.18
2023-03-06T22:46:08.402Z,6.47
2023-03-06T22:48:35.110Z,7.13
2023-03-06T22:51:06.221Z,5.45
2023-03-06T22:53:33.371Z,4.75
2023-03-06T22:56:01.760Z,4.32
2023-03-06T22:58:34.356Z,4.85
2023-03-06T23:01:08.884Z,4.47
2023-03-06T23:03:39.944Z,5.00
2023-03-06T23:06:37.025Z,6.10
2023-03-06T23:09:15.868Z,4.35
2023-03-06T23:11:42.471Z,4.90
2023-03-06T23:14:12.067Z,4.00
2023-03-06T23:16:38.891Z,5.10
2023-03-06T23:19:06.143Z,6.60
2023-03-06T23:21:34.198Z,4.72
2023-03-06T23:24:01.172Z,4.03
2023-03-06T23:26:30.086Z,5.90
2023-03-06T23:28:56.884Z,4.80
2023-03-06T23:31:28.534Z,4.10
2023-03-06T23:34:02.137Z,5.18
2023-03-06T23:36:29.138Z,4.57
2023-03-06T23:38:55.707Z,3.77
2023-03-06T23:41:22.807Z,4.60
2023-03-06T23:43:49.799Z,4.57
2023-03-06T23:46:16.679Z,4.95
2023-03-06T23:48:44.291Z,6.78
2023-03-06T23:51:15.558Z,5.07
2023-03-06T23:53:43.330Z,4.40
2023-03-06T23:56:10.471Z,5.85
2023-03-06T23:58:37.384Z,5.68
